Terminal Aerodrome Forecast
Issued by NWS

Home | Current Version | Previous Version | Text Only | Print | Product List | Glossary On
Versions: 1 2 3 4 5 6 7 8 9 10 11 12 13 14 15
000
FTAK31 PAJN 221100 RRA
TAFAJN
TAF
PAJN 221142Z 2212/2312 08010KT P6SM -SHRA FEW005 SCT015 OVC030
      TEMPO 2212/2216 3SM BR BKN005
     FM222100 11010KT P6SM VCSH BKN035 OVC050
     FM230600 08006KT P6SM SCT035 BKN050=

USA.gov is the U.S. government's official web portal to all federal, state and local government web resources and services.